Ash Springs, Nevada
Current Conditions -  °F | °C
As of 10:55 AM on Friday 24 Oct 2014 (Local Time) from KSGU Reporting Station
Clear Clear  
Wind Chill: 66°   Ceiling: Unl
Heat Index: 66°   Visibility: 10mi
Dew Point: 34°   Wind: 0mph
Humidity: 30%   Direction: NA
Pressure: 30.22"   Gusts: NA
Location:  37.6°N, 114.8°W
Report Text: KSGU 241755Z AUTO 00000KT 10SM CLR 19/01 A3022 RMK AO1 10190 20090 54000
Loading
Personal Weather Stations






























Interactive Weather Map
Tropical Storm Tracking
New forecast layout! Learn more

10-Day Weather Forecast

Advertisements
Track Severe Weather on mobile